Time;durP1;ratioP1;P1;durP2;ratioP2;P2;SDS_P1;SDS_P2;PMS_P1;PMS_P2;Temp;Humidity;BMP_temperature;BMP_pressure;BME280_temperature;BME280_humidity;BME280_pressure;Samples;Min_cycle;Max_cycle;Signal;HPM_P1;HPM_P2
2022/01/03 00:01:28;;;;;;;30.17;4.28;;;10.40;99.90;;;;;;5014837;28;20040;-57
2022/01/03 00:03:55;;;;;;;23.25;3.78;;;10.40;99.90;;;;;;5015209;28;20064;-57
2022/01/03 00:06:20;;;;;;;22.85;3.70;;;10.40;99.90;;;;;;5013216;28;20117;-58
2022/01/03 00:08:46;;;;;;;25.20;3.88;;;10.50;99.90;;;;;;5013844;28;20068;-56
2022/01/03 00:11:14;;;;;;;23.52;3.45;;;10.50;99.90;;;;;;5014796;28;20063;-56
2022/01/03 00:13:43;;;;;;;29.02;4.53;;;10.50;99.90;;;;;;5015025;28;20022;-55
2022/01/03 00:16:09;;;;;;;23.83;3.70;;;10.40;99.90;;;;;;5014360;28;20080;-57
2022/01/03 00:18:35;;;;;;;22.35;3.28;;;10.40;99.90;;;;;;5014630;28;20057;-58
2022/01/03 00:21:01;;;;;;;16.92;2.88;;;10.40;99.90;;;;;;5015127;28;20061;-56
2022/01/03 00:23:29;;;;;;;27.25;3.97;;;10.30;99.90;;;;;;5014692;28;20509;-57
2022/01/03 00:26:01;;;;;;;27.42;3.60;;;10.50;99.90;;;;;;5014097;28;20070;-61
2022/01/03 00:28:32;;;;;;;30.10;3.95;;;10.50;99.90;;;;;;5014866;28;20030;-58
2022/01/03 00:30:58;;;;;;;24.77;4.22;;;10.60;99.90;;;;;;5013885;28;20038;-58
2022/01/03 00:33:25;;;;;;;32.53;4.60;;;10.60;99.90;;;;;;5014862;28;20128;-58
2022/01/03 00:35:58;;;;;;;22.95;3.15;;;10.60;99.90;;;;;;5014270;28;20029;-58
2022/01/03 00:38:29;;;;;;;24.13;3.83;;;10.60;99.90;;;;;;5014302;28;20033;-57
2022/01/03 00:40:56;;;;;;;29.90;4.75;;;10.60;99.90;;;;;;5014538;28;20423;-57
2022/01/03 00:43:22;;;;;;;24.65;3.92;;;10.50;99.90;;;;;;5013685;28;20471;-57
2022/01/03 00:45:52;;;;;;;36.33;4.80;;;10.50;99.90;;;;;;5013596;28;20029;-57
2022/01/03 00:48:18;;;;;;;27.35;3.80;;;10.50;99.90;;;;;;5014220;28;20113;-57
2022/01/03 00:50:43;;;;;;;26.98;4.70;;;10.50;99.90;;;;;;5014214;28;20061;-58
2022/01/03 00:53:09;;;;;;;24.05;3.53;;;10.50;99.90;;;;;;5013923;28;20061;-58
2022/01/03 00:55:35;;;;;;;27.85;3.92;;;10.50;99.90;;;;;;5014186;28;20033;-58
2022/01/03 00:58:09;;;;;;;19.30;2.35;;;10.50;99.90;;;;;;5013452;28;20037;-56
2022/01/03 01:00:37;;;;;;;22.27;3.47;;;10.50;99.90;;;;;;5012870;28;20037;-57
2022/01/03 01:03:11;;;;;;;24.92;4.47;;;10.50;99.90;;;;;;5014241;28;20022;-57
2022/01/03 01:05:50;;;;;;;23.92;3.20;;;10.50;99.90;;;;;;5013814;28;20030;-55
2022/01/03 01:08:22;;;;;;;28.75;3.20;;;10.50;99.90;;;;;;5013167;28;20022;-56
2022/01/03 01:10:51;;;;;;;26.60;3.25;;;10.60;99.90;;;;;;5012669;28;20030;-56
2022/01/03 01:13:18;;;;;;;24.25;4.32;;;10.50;99.90;;;;;;5012654;28;20034;-57
2022/01/03 01:15:44;;;;;;;29.20;3.72;;;10.50;99.90;;;;;;5013706;28;20033;-57
2022/01/03 01:18:09;;;;;;;33.10;4.43;;;10.50;99.90;;;;;;5013142;28;20030;-57
2022/01/03 01:20:39;;;;;;;26.88;4.43;;;10.60;99.90;;;;;;5013258;28;20037;-57
2022/01/03 01:23:06;;;;;;;26.23;4.35;;;10.60;99.90;;;;;;5012041;28;20025;-57
2022/01/03 01:28:05;;;;;;;27.40;3.50;;;10.60;99.90;;;;;;5013622;28;20415;-57
2022/01/03 01:30:31;;;;;;;33.65;3.97;;;10.70;99.90;;;;;;5013638;28;20045;-58
2022/01/03 01:33:05;;;;;;;28.75;4.43;;;10.70;99.90;;;;;;5012388;28;20407;-58
2022/01/03 01:35:57;;;;;;;29.65;4.57;;;10.70;99.90;;;;;;5013437;28;20435;-58
2022/01/03 01:38:28;;;;;;;22.33;3.20;;;10.60;99.90;;;;;;5011774;28;20152;-58
2022/01/03 01:40:56;;;;;;;28.20;4.15;;;10.70;99.90;;;;;;5013421;28;20049;-58
2022/01/03 01:43:32;;;;;;;19.75;3.42;;;10.70;99.90;;;;;;5013690;28;20527;-58
2022/01/03 01:46:00;;;;;;;19.63;3.38;;;10.70;99.90;;;;;;5013276;28;20429;-58
2022/01/03 01:48:26;;;;;;;25.50;3.95;;;10.70;99.90;;;;;;5013774;28;20430;-58
2022/01/03 01:50:55;;;;;;;26.42;2.90;;;10.70;99.90;;;;;;5013150;28;20402;-58
2022/01/03 01:53:23;;;;;;;27.77;4.10;;;10.70;99.90;;;;;;5013223;28;20057;-58
2022/01/03 01:55:52;;;;;;;31.95;4.32;;;10.70;99.90;;;;;;5012649;28;20057;-58
2022/01/03 01:58:34;;;;;;;19.13;3.47;;;10.70;99.90;;;;;;5012728;28;20029;-58
2022/01/03 02:01:05;;;;;;;;;;;10.70;99.90;;;;;;5013277;28;20426;-56
2022/01/03 02:03:51;;;;;;;30.77;3.97;;;10.70;99.90;;;;;;5012592;28;19909;-57
2022/01/03 02:06:41;;;;;;;21.73;3.85;;;10.70;99.90;;;;;;5012799;28;20487;-58
2022/01/03 02:09:25;;;;;;;29.27;4.10;;;10.60;99.90;;;;;;5012954;28;20033;-58
2022/01/03 02:12:02;;;;;;;28.95;4.10;;;10.70;99.90;;;;;;5011727;28;20454;-59
2022/01/03 02:14:35;;;;;;;32.67;4.45;;;10.70;99.90;;;;;;5013079;28;20026;-58
2022/01/03 02:17:01;;;;;;;23.23;3.40;;;10.60;99.90;;;;;;5011320;28;20053;-58
2022/01/03 02:19:27;;;;;;;25.23;4.55;;;10.60;99.90;;;;;;5011244;28;20108;-58
2022/01/03 02:21:53;;;;;;;24.15;3.20;;;10.50;99.90;;;;;;5012755;28;20032;-58
2022/01/03 02:24:18;;;;;;;24.15;3.58;;;10.60;99.90;;;;;;5012886;28;20034;-59
2022/01/03 02:26:44;;;;;;;23.85;3.72;;;10.60;99.90;;;;;;5012567;28;20380;-58
2022/01/03 02:29:09;;;;;;;32.30;4.65;;;10.50;99.90;;;;;;5012940;28;20038;-58
2022/01/03 02:31:36;;;;;;;22.02;3.00;;;10.50;99.90;;;;;;5012725;28;20018;-58
2022/01/03 02:34:03;;;;;;;25.05;3.47;;;10.40;99.90;;;;;;5011423;28;20052;-58
2022/01/03 02:36:31;;;;;;;28.35;4.38;;;10.40;99.90;;;;;;5012100;28;20029;-58
2022/01/03 02:38:56;;;;;;;22.02;3.28;;;10.40;99.90;;;;;;5012270;28;20657;-58
2022/01/03 02:41:22;;;;;;;22.92;3.55;;;10.40;99.90;;;;;;5012261;28;20037;-58
2022/01/03 02:43:50;;;;;;;27.42;3.97;;;10.40;99.90;;;;;;5011995;28;20034;-58
2022/01/03 02:46:16;;;;;;;27.60;3.30;;;10.30;99.90;;;;;;5011444;28;20065;-58
2022/01/03 02:48:41;;;;;;;26.98;3.80;;;10.20;99.90;;;;;;5011833;28;20456;-58
2022/01/03 02:51:07;;;;;;;26.42;3.40;;;10.20;99.90;;;;;;5011743;28;20698;-58
2022/01/03 02:53:33;;;;;;;28.98;4.45;;;10.10;99.90;;;;;;5012298;28;20069;-58
2022/01/03 02:55:59;;;;;;;27.05;4.18;;;10.10;99.90;;;;;;5012542;28;20026;-58
2022/01/03 02:58:25;;;;;;;35.53;4.05;;;10.10;99.90;;;;;;5011470;28;20553;-58
2022/01/03 03:00:52;;;;;;;31.83;5.47;;;10.10;99.90;;;;;;5010635;28;20099;-58
2022/01/03 03:03:20;;;;;;;25.77;3.80;;;10.00;99.90;;;;;;5012081;28;20030;-58
2022/01/03 03:05:46;;;;;;;29.63;3.85;;;10.00;99.90;;;;;;5010795;28;20293;-58
2022/01/03 03:08:13;;;;;;;28.80;4.28;;;10.00;99.90;;;;;;5011891;28;20026;-56
2022/01/03 03:10:40;;;;;;;25.63;3.78;;;10.10;99.90;;;;;;5011706;28;20085;-57
2022/01/03 03:13:06;;;;;;;24.48;3.58;;;10.10;99.90;;;;;;5011954;28;20109;-57
2022/01/03 03:15:32;;;;;;;32.63;5.47;;;10.20;99.90;;;;;;5011470;28;20113;-58
2022/01/03 03:17:58;;;;;;;17.63;3.17;;;10.20;99.90;;;;;;5012204;28;20109;-58
2022/01/03 03:20:26;;;;;;;25.75;4.63;;;10.20;99.90;;;;;;5011244;28;20080;-58
2022/01/03 03:22:53;;;;;;;28.45;4.47;;;10.20;99.90;;;;;;5011604;28;20378;-58
2022/01/03 03:25:22;;;;;;;21.10;2.67;;;10.30;99.90;;;;;;5011919;28;20109;-58
2022/01/03 03:27:54;;;;;;;25.73;4.43;;;10.30;99.90;;;;;;5012313;28;20093;-58
2022/01/03 03:30:26;;;;;;;34.97;4.90;;;10.30;99.90;;;;;;5013036;28;20435;-58
2022/01/03 03:32:56;;;;;;;26.92;3.42;;;10.30;99.90;;;;;;5015773;28;20029;-58
2022/01/03 03:35:22;;;;;;;23.98;3.78;;;10.20;99.90;;;;;;5014484;28;20026;-58
2022/01/03 03:37:48;;;;;;;25.30;4.00;;;10.30;99.90;;;;;;5015247;28;20439;-58
2022/01/03 03:40:14;;;;;;;35.95;4.93;;;10.30;99.90;;;;;;5015882;28;20022;-58
2022/01/03 03:42:40;;;;;;;32.63;4.82;;;10.30;99.90;;;;;;5015101;28;20034;-58
2022/01/03 03:45:07;;;;;;;32.50;4.63;;;10.30;99.90;;;;;;5015587;28;20033;-58
2022/01/03 03:47:33;;;;;;;25.60;4.50;;;10.40;99.90;;;;;;5015247;28;20121;-59
2022/01/03 03:49:59;;;;;;;24.63;3.45;;;10.40;99.90;;;;;;5014893;28;20053;-58
2022/01/03 03:52:26;;;;;;;23.90;4.18;;;10.40;99.90;;;;;;5013279;28;20018;-58
2022/01/03 03:54:52;;;;;;;18.65;3.28;;;10.40;99.90;;;;;;5015054;28;20025;-58
2022/01/03 03:57:17;;;;;;;17.77;2.97;;;10.40;99.90;;;;;;5014889;28;20018;-58
2022/01/03 03:59:43;;;;;;;22.45;3.15;;;10.30;99.90;;;;;;5014927;28;20391;-58
2022/01/03 04:02:08;;;;;;;17.38;2.50;;;10.30;99.90;;;;;;5014964;28;20420;-58
2022/01/03 04:04:34;;;;;;;19.20;2.95;;;10.30;99.90;;;;;;5013776;28;20403;-58
2022/01/03 04:07:00;;;;;;;18.85;3.08;;;10.20;99.90;;;;;;5014884;28;20049;-58
2022/01/03 04:09:26;;;;;;;18.48;3.53;;;10.20;99.90;;;;;;5015094;28;20056;-58
2022/01/03 04:11:52;;;;;;;17.58;3.20;;;10.20;99.90;;;;;;5014746;28;20113;-58
2022/01/03 04:14:18;;;;;;;24.88;4.05;;;10.20;99.90;;;;;;5014649;28;20026;-58
2022/01/03 04:16:44;;;;;;;25.60;4.03;;;10.20;99.90;;;;;;5014534;28;20484;-58
2022/01/03 04:19:10;;;;;;;23.83;3.33;;;10.20;99.90;;;;;;5014613;28;20559;-58
2022/01/03 04:21:37;;;;;;;24.00;3.60;;;10.20;99.90;;;;;;5015006;28;20109;-58
2022/01/03 04:24:04;;;;;;;22.70;3.25;;;10.20;99.90;;;;;;5015168;28;20025;-58
2022/01/03 04:26:31;;;;;;;18.92;3.38;;;10.20;99.90;;;;;;5014168;28;20057;-58
2022/01/03 04:28:57;;;;;;;22.80;3.53;;;10.20;99.90;;;;;;5014859;28;20037;-58
2022/01/03 04:31:22;;;;;;;21.90;3.33;;;10.30;99.90;;;;;;5014053;28;20022;-58
2022/01/03 04:33:48;;;;;;;20.38;2.97;;;10.30;99.90;;;;;;5014341;28;20033;-58
2022/01/03 04:36:14;;;;;;;29.75;3.75;;;10.30;99.90;;;;;;5014013;28;20112;-58
2022/01/03 04:38:39;;;;;;;24.23;3.15;;;10.30;99.90;;;;;;5014340;28;20033;-58
2022/01/03 04:41:05;;;;;;;18.65;4.32;;;10.20;99.90;;;;;;5013893;28;20752;-58
2022/01/03 04:43:33;;;;;;;15.95;2.95;;;10.20;99.90;;;;;;5013204;28;20112;-58
2022/01/03 04:45:59;;;;;;;20.90;3.90;;;10.20;99.90;;;;;;5014484;28;20022;-58
2022/01/03 04:48:24;;;;;;;18.40;3.72;;;10.10;99.90;;;;;;5014223;28;20029;-58
2022/01/03 04:50:50;;;;;;;23.27;3.22;;;10.10;99.90;;;;;;5014050;28;20025;-58
2022/01/03 04:53:16;;;;;;;27.35;4.32;;;10.10;99.90;;;;;;5013546;28;20033;-58
2022/01/03 04:55:42;;;;;;;16.05;2.60;;;10.10;99.90;;;;;;5014397;28;20053;-58
2022/01/03 04:58:10;;;;;;;18.30;3.15;;;10.10;99.90;;;;;;5014494;28;20103;-58
2022/01/03 05:00:36;;;;;;;24.88;4.05;;;10.10;99.90;;;;;;5014746;28;20053;-59
2022/01/03 05:03:02;;;;;;;23.52;3.25;;;10.00;99.90;;;;;;5014213;28;20084;-58
2022/01/03 05:05:28;;;;;;;23.10;3.55;;;10.00;99.90;;;;;;5014007;28;20026;-58
2022/01/03 05:07:54;;;;;;;23.38;3.33;;;9.90;99.90;;;;;;5014585;28;20391;-59
2022/01/03 05:10:19;;;;;;;24.48;4.15;;;9.90;99.90;;;;;;5013753;28;20017;-59
2022/01/03 05:12:45;;;;;;;24.70;3.95;;;9.90;99.90;;;;;;5013644;28;20465;-58
2022/01/03 05:15:10;;;;;;;14.90;2.38;;;9.90;99.90;;;;;;5014145;28;20118;-58
2022/01/03 05:17:36;;;;;;;24.15;2.97;;;9.90;99.90;;;;;;5014213;28;20029;-58
2022/01/03 05:20:03;;;;;;;24.23;3.85;;;9.90;99.90;;;;;;5013439;28;20104;-58
2022/01/03 05:22:28;;;;;;;22.48;3.80;;;9.90;99.90;;;;;;5013556;28;20029;-58
2022/01/03 05:24:54;;;;;;;17.15;3.50;;;9.90;99.90;;;;;;5013494;28;20022;-58
2022/01/03 05:27:19;;;;;;;22.98;3.75;;;9.90;99.90;;;;;;5013606;28;20132;-58
2022/01/03 05:29:46;;;;;;;24.10;3.88;;;9.90;99.90;;;;;;5013676;28;20030;-58
2022/01/03 05:32:11;;;;;;;20.70;3.03;;;9.90;99.90;;;;;;5012776;28;20530;-58
2022/01/03 05:34:37;;;;;;;21.65;3.67;;;9.90;99.90;;;;;;5013541;28;20057;-58
2022/01/03 05:37:03;;;;;;;31.38;4.10;;;9.90;99.90;;;;;;5013049;28;20021;-58
2022/01/03 05:39:28;;;;;;;23.98;3.70;;;9.80;99.90;;;;;;5013182;28;20026;-58
2022/01/03 05:41:54;;;;;;;20.38;2.80;;;9.80;99.90;;;;;;5013785;28;20074;-58
2022/01/03 05:44:20;;;;;;;24.15;3.58;;;9.70;99.90;;;;;;5013921;28;20022;-58
2022/01/03 05:46:45;;;;;;;20.88;3.40;;;9.70;99.90;;;;;;5013482;28;20210;-58
2022/01/03 05:49:11;;;;;;;25.33;3.97;;;9.70;99.90;;;;;;5013004;28;20024;-58
2022/01/03 05:51:37;;;;;;;17.10;2.95;;;9.70;99.90;;;;;;5012069;28;20020;-58
2022/01/03 05:54:03;;;;;;;29.88;4.13;;;9.70;99.90;;;;;;5013165;28;20036;-58
2022/01/03 05:56:29;;;;;;;30.02;3.85;;;9.80;99.90;;;;;;5012925;28;20026;-58
2022/01/03 05:58:55;;;;;;;19.90;3.35;;;9.80;99.90;;;;;;5012866;28;20033;-58
2022/01/03 06:01:22;;;;;;;21.42;3.13;;;9.80;99.90;;;;;;5013075;28;20069;-58
2022/01/03 06:03:56;;;;;;;17.35;2.58;;;9.90;99.90;;;;;;5013870;28;20030;-58
2022/01/03 06:06:53;;;;;;;16.48;2.92;;;9.90;99.90;;;;;;5013297;28;20033;-59
2022/01/03 06:09:09;;;;;;;26.23;4.10;;;10.00;99.90;;;;;;5013229;28;20491;-59
2022/01/03 06:11:34;;;;;;;21.02;4.00;;;10.00;99.90;;;;;;5013059;28;20026;-59
2022/01/03 06:14:00;;;;;;;17.45;3.58;;;10.00;99.90;;;;;;5013461;28;20033;-58
2022/01/03 06:16:26;;;;;;;24.58;4.05;;;10.00;99.90;;;;;;5012638;28;20026;-58
2022/01/03 06:18:51;;;;;;;26.67;4.38;;;10.00;99.90;;;;;;5012486;28;20026;-58
2022/01/03 06:21:17;;;;;;;22.10;3.65;;;10.00;99.90;;;;;;5012716;28;20034;-58
2022/01/03 06:23:44;;;;;;;22.13;3.72;;;10.10;99.90;;;;;;5012524;28;20025;-59
2022/01/03 06:26:09;;;;;;;24.85;3.88;;;10.10;99.90;;;;;;5012096;28;20050;-58
2022/01/03 06:28:35;;;;;;;21.63;3.67;;;10.10;99.90;;;;;;5012235;28;20526;-59
2022/01/03 06:31:01;;;;;;;10.60;2.28;;;10.00;99.90;;;;;;5012603;28;20543;-59
2022/01/03 06:33:26;;;;;;;18.17;2.72;;;10.10;99.90;;;;;;5012688;28;20070;-58
2022/01/03 06:35:52;;;;;;;21.58;3.15;;;10.00;99.90;;;;;;5013043;28;20048;-58
2022/01/03 06:38:17;;;;;;;23.67;3.42;;;10.00;99.90;;;;;;5012897;28;20101;-58
2022/01/03 06:40:43;;;;;;;19.60;2.83;;;10.00;99.90;;;;;;5012703;28;20030;-58
2022/01/03 06:43:09;;;;;;;22.33;3.40;;;10.00;99.90;;;;;;5012272;28;20372;-58
2022/01/03 06:45:35;;;;;;;23.75;3.38;;;10.00;99.90;;;;;;5011520;28;20022;-58
2022/01/03 06:48:00;;;;;;;23.30;3.50;;;10.00;99.90;;;;;;5012550;28;20080;-59
2022/01/03 06:50:28;;;;;;;23.73;3.97;;;10.10;99.90;;;;;;5013006;28;20034;-59
2022/01/03 06:52:54;;;;;;;21.25;3.80;;;10.00;99.90;;;;;;5013285;28;20030;-59
2022/01/03 06:55:19;;;;;;;18.50;3.30;;;10.00;99.90;;;;;;5013172;28;20028;-59
2022/01/03 06:57:45;;;;;;;22.67;3.80;;;10.00;99.90;;;;;;5012303;28;20044;-59
2022/01/03 07:00:11;;;;;;;20.35;2.75;;;10.00;99.90;;;;;;5012135;28;20108;-59
2022/01/03 07:02:40;;;;;;;24.08;3.45;;;10.00;99.90;;;;;;5012769;28;20018;-59
2022/01/03 07:05:06;;;;;;;22.80;3.10;;;10.00;99.90;;;;;;5012976;28;20018;-58
2022/01/03 07:07:32;;;;;;;20.75;3.40;;;10.00;99.90;;;;;;5016695;28;20037;-58
2022/01/03 07:09:57;;;;;;;26.35;4.00;;;10.10;99.90;;;;;;5016046;28;20072;-58
2022/01/03 07:12:23;;;;;;;15.52;2.97;;;10.10;99.90;;;;;;5016112;28;20014;-58
2022/01/03 07:19:59;;;;;;;23.15;3.75;;;10.10;99.90;;;;;;5015337;28;20482;-58
2022/01/03 07:22:27;;;;;;;24.45;4.30;;;10.10;99.90;;;;;;5015856;28;20426;-58
2022/01/03 07:24:53;;;;;;;24.65;4.53;;;10.10;99.90;;;;;;5015434;28;20105;-58
2022/01/03 07:27:19;;;;;;;18.77;3.90;;;10.00;99.90;;;;;;5015478;28;20085;-58
2022/01/03 07:29:47;;;;;;;25.83;4.03;;;10.00;99.90;;;;;;5014047;28;20022;-58
2022/01/03 07:32:12;;;;;;;18.13;3.28;;;10.00;99.90;;;;;;5016016;28;20395;-58
2022/01/03 07:34:39;;;;;;;21.95;4.07;;;9.90;99.90;;;;;;5016111;28;20034;-58
2022/01/03 07:37:05;;;;;;;18.48;3.45;;;9.90;99.90;;;;;;5016100;28;20395;-58
2022/01/03 07:39:31;;;;;;;25.02;4.07;;;9.90;99.90;;;;;;5015771;28;20084;-58
2022/01/03 07:42:00;;;;;;;26.02;4.20;;;9.90;99.90;;;;;;5016064;28;20466;-59
2022/01/03 07:44:26;;;;;;;22.45;3.85;;;9.90;99.90;;;;;;5015466;28;20037;-59
2022/01/03 07:46:51;;;;;;;20.85;4.15;;;10.00;99.90;;;;;;5016128;28;20383;-59
2022/01/03 07:49:17;;;;;;;26.38;4.63;;;10.00;99.90;;;;;;5014520;28;20029;-59
2022/01/03 07:51:42;;;;;;;27.23;4.57;;;10.00;99.90;;;;;;5015811;28;20033;-59
2022/01/03 07:54:08;;;;;;;24.48;4.10;;;10.00;99.90;;;;;;5015745;28;20038;-59
2022/01/03 07:56:33;;;;;;;24.00;4.07;;;9.90;99.90;;;;;;5015777;28;20022;-59
2022/01/03 07:58:59;;;;;;;17.33;3.22;;;10.00;99.90;;;;;;5013793;28;20033;-59
2022/01/03 08:01:25;;;;;;;20.95;4.90;;;10.00;99.90;;;;;;5013459;28;20293;-59
2022/01/03 08:03:51;;;;;;;24.23;3.95;;;10.00;99.90;;;;;;5013195;28;20061;-59
2022/01/03 08:06:16;;;;;;;21.13;4.07;;;10.00;99.90;;;;;;5014847;28;20072;-59
2022/01/03 08:08:42;;;;;;;17.77;3.05;;;10.00;99.90;;;;;;5015001;28;20438;-59
2022/01/03 08:11:08;;;;;;;21.35;3.35;;;10.00;99.90;;;;;;5015247;28;20065;-59
2022/01/03 08:13:33;;;;;;;24.13;4.07;;;10.00;99.90;;;;;;5014206;28;20471;-59
2022/01/03 08:15:59;;;;;;;22.70;4.68;;;10.00;99.90;;;;;;5015079;28;20029;-59
2022/01/03 08:18:24;;;;;;;26.48;4.30;;;10.00;99.90;;;;;;5014092;28;20026;-59
2022/01/03 08:20:53;;;;;;;25.30;3.83;;;10.00;99.90;;;;;;5013550;28;20030;-59
2022/01/03 08:23:18;;;;;;;24.17;4.55;;;10.00;99.90;;;;;;5014904;28;20479;-59
2022/01/03 08:25:44;;;;;;;18.35;3.88;;;10.00;99.90;;;;;;5015006;28;20389;-59
2022/01/03 08:28:11;;;;;;;21.70;4.15;;;10.00;99.90;;;;;;5015041;28;20025;-59
2022/01/03 08:30:37;;;;;;;23.65;4.18;;;10.00;99.90;;;;;;5014782;28;20054;-59
2022/01/03 08:33:04;;;;;;;23.38;3.83;;;10.00;99.90;;;;;;5015239;28;20014;-59
2022/01/03 08:35:30;;;;;;;27.23;4.28;;;10.10;99.90;;;;;;5014673;28;20025;-59
2022/01/03 08:37:56;;;;;;;18.05;3.88;;;10.10;99.90;;;;;;5014622;28;20030;-59
2022/01/03 08:40:22;;;;;;;25.33;5.50;;;10.10;99.90;;;;;;5015511;28;20022;-59
2022/01/03 08:42:48;;;;;;;22.00;4.25;;;10.10;99.90;;;;;;5014321;28;20038;-59
2022/01/03 08:45:14;;;;;;;25.00;4.18;;;10.10;99.90;;;;;;5014673;28;20018;-59
2022/01/03 08:47:39;;;;;;;22.58;4.13;;;10.10;99.90;;;;;;5014565;28;20033;-59
2022/01/03 08:50:06;;;;;;;25.35;4.78;;;10.10;99.90;;;;;;5015124;28;20018;-59
2022/01/03 08:52:32;;;;;;;22.13;4.65;;;10.10;99.90;;;;;;5014278;28;20026;-59
2022/01/03 08:54:58;;;;;;;21.00;3.58;;;10.10;99.90;;;;;;5014596;28;20071;-59
2022/01/03 08:57:24;;;;;;;20.60;3.88;;;10.20;99.90;;;;;;5012928;28;20022;-59
2022/01/03 08:59:50;;;;;;;20.48;3.83;;;10.20;99.90;;;;;;5014146;28;20037;-59
2022/01/03 09:02:16;;;;;;;22.48;4.20;;;10.20;99.90;;;;;;5014715;28;20069;-59
2022/01/03 09:04:46;;;;;;;25.23;4.47;;;10.20;99.90;;;;;;5013356;28;20395;-59
2022/01/03 09:07:12;;;;;;;23.40;3.42;;;10.20;99.90;;;;;;5012700;28;20022;-59
2022/01/03 09:09:39;;;;;;;20.02;4.18;;;10.20;99.90;;;;;;5014722;28;20018;-59
2022/01/03 09:12:06;;;;;;;22.50;3.83;;;10.20;99.90;;;;;;5014324;28;20030;-59
2022/01/03 09:14:36;;;;;;;71.20;9.50;;;10.20;99.90;;;;;;5014269;28;20484;-58
2022/01/03 09:17:02;;;;;;;309.30;34.97;;;10.20;99.90;;;;;;5014021;28;20053;-58
2022/01/03 09:19:28;;;;;;;22.13;4.07;;;10.30;99.90;;;;;;5013110;28;20033;-58
2022/01/03 09:22:02;;;;;;;24.80;3.63;;;10.30;99.90;;;;;;5014370;28;20033;-58
2022/01/03 09:24:32;;;;;;;24.55;4.65;;;10.40;99.90;;;;;;5014853;28;20033;-58
2022/01/03 09:29:42;;;;;;;23.20;4.25;;;10.30;99.90;;;;;;5013727;28;20076;-58
2022/01/03 09:32:08;;;;;;;20.60;4.45;;;10.20;99.90;;;;;;5012462;28;20022;-58
2022/01/03 09:34:34;;;;;;;17.00;3.30;;;10.20;99.90;;;;;;5012311;28;20111;-58
2022/01/03 09:37:01;;;;;;;22.13;4.20;;;10.20;99.90;;;;;;5013340;28;20034;-58
2022/01/03 09:39:27;;;;;;;22.67;4.63;;;10.30;99.90;;;;;;5012334;28;20403;-58
2022/01/03 09:42:04;;;;;;;26.05;4.60;;;10.30;99.90;;;;;;5012920;28;20022;-58
2022/01/03 09:44:32;;;;;;;24.90;4.15;;;10.40;99.90;;;;;;5013240;28;20061;-58
2022/01/03 09:47:04;;;;;;;23.58;5.03;;;10.40;99.90;;;;;;5013768;28;20117;-58
2022/01/03 09:49:35;;;;;;;24.08;4.60;;;10.30;99.90;;;;;;5013840;28;20028;-58
2022/01/03 09:52:06;;;;;;;27.80;5.00;;;10.20;99.90;;;;;;5013761;28;20036;-58
2022/01/03 09:54:33;;;;;;;23.00;4.65;;;10.20;99.90;;;;;;5013391;28;20049;-58
2022/01/03 09:57:01;;;;;;;24.92;5.38;;;10.10;99.90;;;;;;5012777;28;20030;-55
2022/01/03 09:59:28;;;;;;;22.85;4.50;;;10.10;99.90;;;;;;5012900;28;20029;-55
2022/01/03 10:01:56;;;;;;;24.27;4.88;;;10.10;99.90;;;;;;5012550;28;20100;-56
2022/01/03 10:04:22;;;;;;;20.02;4.45;;;10.00;99.90;;;;;;5013020;28;20034;-56
2022/01/03 10:06:48;;;;;;;24.58;4.53;;;10.00;99.90;;;;;;5012585;28;20384;-55
2022/01/03 10:09:15;;;;;;;71.95;10.23;;;10.00;99.90;;;;;;5012556;28;20018;-56
2022/01/03 10:11:40;;;;;;;32.22;6.13;;;10.00;99.90;;;;;;5011532;28;20111;-56
2022/01/03 10:14:06;;;;;;;24.38;5.85;;;10.00;99.90;;;;;;5012994;28;20057;-55
2022/01/03 10:16:32;;;;;;;23.00;5.35;;;10.00;99.90;;;;;;5012591;28;20579;-55
2022/01/03 10:18:58;;;;;;;36.20;5.07;;;10.00;99.90;;;;;;5012268;28;20033;-57
2022/01/03 10:21:35;;;;;;;26.98;4.30;;;10.00;99.90;;;;;;5012252;28;20029;-57
2022/01/03 10:24:01;;;;;;;29.77;4.93;;;10.00;99.90;;;;;;5012434;28;20047;-57
2022/01/03 10:26:26;;;;;;;29.05;5.90;;;9.90;99.90;;;;;;5012328;28;20121;-57
2022/01/03 10:29:31;;;;;;;24.48;4.90;;;9.90;99.90;;;;;;5012329;28;20061;-57
2022/01/03 10:31:59;;;;;;;25.38;4.80;;;10.00;99.90;;;;;;5012364;28;20483;-57
2022/01/03 10:34:25;;;;;;;28.38;3.80;;;10.00;99.90;;;;;;5011216;28;20022;-57
2022/01/03 10:36:53;;;;;;;28.60;4.95;;;10.00;99.90;;;;;;5012724;28;20084;-57
2022/01/03 10:39:24;;;;;;;27.00;4.82;;;10.10;99.90;;;;;;5012051;28;20030;-57
2022/01/03 10:42:10;;;;;;;27.67;5.28;;;10.20;99.90;;;;;;5011521;28;20080;-57
2022/01/03 10:44:37;;;;;;;27.17;4.60;;;10.20;99.90;;;;;;5010638;28;20065;-57
2022/01/03 10:47:07;;;;;;;29.35;4.70;;;10.20;99.90;;;;;;5011235;28;20018;-56
2022/01/03 10:49:33;;;;;;;25.33;5.05;;;10.30;99.90;;;;;;5010660;28;20072;-57
2022/01/03 10:52:17;;;;;;;30.70;4.30;;;10.30;99.90;;;;;;5010393;28;20050;-56
2022/01/03 10:54:45;;;;;;;20.67;4.60;;;10.40;99.90;;;;;;5012605;28;20026;-55
2022/01/03 10:57:10;;;;;;;30.95;5.45;;;10.40;99.90;;;;;;5011821;28;20436;-55
2022/01/03 10:59:36;;;;;;;20.92;3.70;;;10.40;99.90;;;;;;5012409;28;20063;-56
2022/01/03 11:02:04;;;;;;;23.67;4.32;;;10.40;99.90;;;;;;5012569;28;20033;-56
2022/01/03 11:13:07;;;;;;;27.63;4.90;;;10.20;99.90;;;;;;5012137;28;20565;-54
2022/01/03 11:15:32;;;;;;;35.78;5.22;;;10.20;99.90;;;;;;5012014;28;20037;-54
2022/01/03 11:18:13;;;;;;;29.35;3.65;;;10.20;99.90;;;;;;5013157;28;20029;-55
2022/01/03 11:20:40;;;;;;;23.70;4.95;;;10.10;99.90;;;;;;5011941;28;20038;-57
2022/01/03 11:23:06;;;;;;;22.48;3.60;;;10.10;99.90;;;;;;5011674;28;20479;-57
2022/01/03 11:25:33;;;;;;;19.13;2.63;;;10.00;99.90;;;;;;5011821;28;20022;-57
2022/01/03 11:27:59;;;;;;;17.63;3.30;;;10.00;99.90;;;;;;5012347;28;20026;-57
2022/01/03 11:30:26;;;;;;;13.88;2.70;;;9.90;99.90;;;;;;5011883;28;20049;-57
2022/01/03 11:32:52;;;;;;;20.05;3.58;;;9.90;99.90;;;;;;5011669;28;20083;-57
2022/01/03 11:35:18;;;;;;;16.17;3.20;;;9.80;99.90;;;;;;5011422;28;20030;-57
2022/01/03 11:37:46;;;;;;;23.70;3.30;;;9.80;99.90;;;;;;5011620;28;20050;-57
2022/01/03 11:40:15;;;;;;;20.17;3.45;;;9.80;99.90;;;;;;5010716;28;20438;-57
2022/01/03 11:42:41;;;;;;;24.90;4.28;;;9.80;99.90;;;;;;5012030;28;20029;-57
2022/01/03 11:45:08;;;;;;;27.00;4.95;;;9.80;99.90;;;;;;5011621;28;20026;-57
2022/01/03 11:47:36;;;;;;;22.25;4.97;;;9.80;99.90;;;;;;5011324;28;20553;-57
2022/01/03 11:50:03;;;;;;;26.58;4.47;;;9.80;99.90;;;;;;5011222;28;20453;-57
2022/01/03 11:52:30;;;;;;;15.38;5.15;;;9.80;99.90;;;;;;5013885;28;20049;-58
2022/01/03 11:54:56;;;;;;;14.18;3.65;;;9.80;99.90;;;;;;5015491;28;20018;-58
2022/01/03 11:57:43;;;;;;;17.40;4.13;;;9.80;99.90;;;;;;5014853;28;20030;-59
2022/01/03 12:03:39;;;;;;;21.58;4.30;;;9.80;99.90;;;;;;5051497;28;20025;-59
2022/01/03 12:06:07;;;;;;;22.70;4.68;;;9.70;99.90;;;;;;5015903;28;20033;-59
2022/01/03 12:08:35;;;;;;;17.20;3.63;;;9.80;99.90;;;;;;5014692;28;20022;-59
2022/01/03 12:11:20;;;;;;;21.17;3.70;;;9.70;99.90;;;;;;5014828;28;20022;-60
2022/01/03 12:13:57;;;;;;;17.90;3.40;;;9.70;99.90;;;;;;5015768;28;20101;-59
2022/01/03 12:16:44;;;;;;;19.45;3.78;;;9.70;99.90;;;;;;5014610;28;20026;-59
2022/01/03 12:19:27;;;;;;;14.07;3.70;;;9.70;99.90;;;;;;5014277;28;20061;-58
2022/01/03 12:21:58;;;;;;;11.52;2.92;;;9.70;99.90;;;;;;5014406;28;20022;-59
2022/01/03 12:24:27;;;;;;;15.80;3.33;;;9.70;99.90;;;;;;5013081;28;20042;-59
2022/01/03 12:27:13;;;;;;;13.50;3.08;;;9.70;99.90;;;;;;5014473;28;20049;-59
2022/01/03 12:29:54;;;;;;;19.23;4.15;;;9.70;99.90;;;;;;5014300;28;20030;-59
2022/01/03 12:32:41;;;;;;;12.25;3.50;;;9.70;99.90;;;;;;5014292;28;20049;-59
2022/01/03 12:35:10;;;;;;;14.23;2.83;;;9.70;99.90;;;;;;5014571;28;20442;-59
2022/01/03 12:37:43;;;;;;;14.38;2.90;;;9.70;99.90;;;;;;5013787;28;20034;-59
2022/01/03 12:40:08;;;;;;;;;;;9.70;99.90;;;;;;5014925;28;20060;-59
2022/01/03 12:42:51;;;;;;;7.72;2.50;;;9.60;99.90;;;;;;5014737;28;19906;-58
2022/01/03 12:45:37;;;;;;;12.00;3.08;;;9.60;99.90;;;;;;5029876;28;20038;-57
2022/01/03 12:48:08;;;;;;;13.38;2.42;;;9.60;99.90;;;;;;5013279;28;20080;-58
2022/01/03 12:51:00;;;;;;;11.05;2.22;;;9.50;99.90;;;;;;5029577;28;20026;-58
2022/01/03 12:53:26;;;;;;;10.85;2.22;;;9.50;99.90;;;;;;5013550;28;20037;-58
2022/01/03 12:55:54;;;;;;;16.75;2.55;;;9.50;99.90;;;;;;5029163;28;20080;-58
2022/01/03 12:58:19;;;;;;;9.70;1.80;;;9.50;99.90;;;;;;5014075;28;20030;-58
2022/01/03 13:00:45;;;;;;;10.80;1.60;;;9.50;99.90;;;;;;5013938;28;20492;-58
2022/01/03 13:03:32;;;;;;;11.88;1.75;;;9.50;99.90;;;;;;5013664;28;20091;-58
2022/01/03 13:06:13;;;;;;;6.68;1.73;;;9.50;99.90;;;;;;5014532;28;20030;-59
2022/01/03 13:08:47;;;;;;;10.15;1.60;;;9.50;99.90;;;;;;5012836;28;20106;-59